createdAt,value
2018-08-23T00:04:58.407Z,100190.33
2018-08-23T00:10:07.758Z,100188.12
2018-08-23T00:15:14.698Z,100183.08
2018-08-23T00:20:22.488Z,100178.24
2018-08-23T00:25:26.160Z,100180.88
2018-08-23T00:30:31.107Z,100170.07
2018-08-23T00:35:37.480Z,100167.94
2018-08-23T00:40:42.764Z,100169.73
2018-08-23T00:45:46.376Z,100161.12
2018-08-23T00:50:52.559Z,100156.88
2018-08-23T00:56:11.509Z,100161.67
2018-08-23T01:01:15.804Z,100153.16
2018-08-23T01:06:23.587Z,100148.41
2018-08-23T01:11:27.224Z,100145.87
2018-08-23T01:16:31.953Z,100131.67
2018-08-23T01:22:10.874Z,100138.73
2018-08-23T01:27:20.183Z,100135.16
2018-08-23T01:32:28.955Z,100132.95
2018-08-23T01:37:38.956Z,100132.88
2018-08-23T01:42:42.802Z,100121.66
2018-08-23T01:47:53.542Z,100124.13
2018-08-23T01:52:58.274Z,100121.09
2018-08-23T01:58:01.943Z,100117.39
2018-08-23T02:03:05.662Z,100110.80
2018-08-23T02:08:09.319Z,100108.60
2018-08-23T02:13:17.097Z,100107.25
2018-08-23T02:18:21.150Z,100100.08
2018-08-23T02:23:26.053Z,100097.73
2018-08-23T02:28:30.225Z,100101.78
2018-08-23T02:33:33.911Z,100095.46
2018-08-23T02:38:37.595Z,100095.11
2018-08-23T02:43:41.654Z,100090.67
2018-08-23T02:48:46.342Z,100093.30
2018-08-23T02:53:50.093Z,100092.60
2018-08-23T02:59:02.009Z,100088.48
2018-08-23T03:04:16.205Z,100086.44
2018-08-23T03:09:22.824Z,100088.91
2018-08-23T03:14:27.260Z,100091.91
2018-08-23T03:19:30.920Z,100098.50
2018-08-23T03:24:34.794Z,100093.45
2018-08-23T03:29:38.380Z,100093.25
2018-08-23T03:34:42.133Z,100089.55
2018-08-23T03:39:46.003Z,100089.17
2018-08-23T03:44:52.174Z,100090.30
2018-08-23T03:49:55.893Z,100096.00
2018-08-23T03:55:00.953Z,100095.95
2018-08-23T04:00:06.757Z,100094.17
2018-08-23T04:05:15.528Z,100088.44
2018-08-23T04:10:19.192Z,100085.19
2018-08-23T04:15:24.638Z,100086.54
2018-08-23T04:20:28.250Z,100079.95
2018-08-23T04:25:32.025Z,100079.52
2018-08-23T04:30:35.665Z,100077.90
2018-08-23T04:35:39.372Z,100074.58
2018-08-23T04:40:58.913Z,100074.30
2018-08-23T04:46:04.088Z,100076.42
2018-08-23T04:51:07.869Z,100076.80
2018-08-23T04:56:11.574Z,100078.98
2018-08-23T05:01:15.227Z,100076.55
2018-08-23T05:06:18.891Z,100077.55
2018-08-23T05:11:22.576Z,100068.19
2018-08-23T05:16:26.442Z,100076.40
2018-08-23T05:21:30.180Z,100059.30
2018-08-23T05:26:33.850Z,100057.25
2018-08-23T05:31:37.663Z,100060.99
2018-08-23T05:36:41.384Z,100061.34
2018-08-23T05:41:45.068Z,100060.07
2018-08-23T05:46:54.526Z,100056.14
2018-08-23T05:51:59.700Z,100056.14
2018-08-23T05:57:03.443Z,100052.38
2018-08-23T06:02:07.580Z,100054.22
2018-08-23T06:07:11.304Z,100044.66
2018-08-23T06:12:15.070Z,100045.20
2018-08-23T06:17:18.821Z,100044.78
2018-08-23T06:22:22.592Z,100044.28
2018-08-23T06:27:26.429Z,100034.61
2018-08-23T06:32:30.230Z,100031.75
2018-08-23T06:37:34.542Z,100029.12
2018-08-23T06:42:46.421Z,100030.90
2018-08-23T06:47:54.241Z,100038.69
2018-08-23T06:52:57.879Z,100034.77
2018-08-23T06:58:02.663Z,100030.30
2018-08-23T07:03:06.396Z,100027.90
2018-08-23T07:08:10.089Z,100018.61
2018-08-23T07:13:13.719Z,100021.88
2018-08-23T07:18:20.836Z,100007.77
2018-08-23T07:23:34.622Z,100005.34
2018-08-23T07:28:38.723Z,100002.30
2018-08-23T07:33:50.819Z,100012.76
2018-08-23T07:38:54.471Z,100011.09
2018-08-23T07:43:58.045Z,100008.23
2018-08-23T07:49:01.706Z,100010.00
2018-08-23T07:54:09.566Z,100015.23
2018-08-23T07:59:13.842Z,100010.00
2018-08-23T08:04:17.514Z,100008.52
2018-08-23T08:09:25.495Z,100004.62
2018-08-23T08:14:38.857Z,99994.41
2018-08-23T08:19:46.550Z,99999.81
2018-08-23T08:24:58.646Z,99995.10
2018-08-23T08:30:02.568Z,100000.56
2018-08-23T08:35:06.215Z,99994.78
2018-08-23T08:40:15.024Z,99993.66
2018-08-23T08:45:18.697Z,99983.56
2018-08-23T08:50:22.351Z,99981.20
2018-08-23T08:55:26.035Z,99974.95
2018-08-23T09:00:33.854Z,99963.31
2018-08-23T09:05:37.525Z,99956.28
2018-08-23T09:10:41.207Z,99952.42
2018-08-23T09:15:49.395Z,99948.45
2018-08-23T09:20:55.813Z,99938.48
2018-08-23T09:25:59.440Z,99936.13
2018-08-23T09:31:03.099Z,99937.16
2018-08-23T09:36:06.844Z,99931.41
2018-08-23T09:41:10.589Z,99924.90
2018-08-23T09:46:14.296Z,99918.31
2018-08-23T09:51:23.154Z,99917.97
2018-08-23T09:56:30.683Z,99904.47
2018-08-23T10:01:39.622Z,99895.35
2018-08-23T10:06:48.385Z,99892.48
2018-08-23T10:11:57.265Z,99883.88
2018-08-23T10:17:06.246Z,99876.63
2018-08-23T10:22:15.082Z,99875.17
2018-08-23T10:27:19.232Z,99861.16
2018-08-23T10:32:23.007Z,99863.70
2018-08-23T10:37:26.564Z,99855.59
2018-08-23T10:42:30.265Z,99856.78
2018-08-23T10:47:40.062Z,99848.68
2018-08-23T10:52:43.780Z,99847.67
2018-08-23T10:57:48.462Z,99837.20
2018-08-23T11:02:52.215Z,99831.64
2018-08-23T11:08:01.876Z,99826.61
2018-08-23T11:13:10.796Z,99822.05
2018-08-23T11:18:20.525Z,99813.78
2018-08-23T11:23:24.859Z,99804.33
2018-08-23T11:28:29.201Z,99797.06
2018-08-23T11:33:41.874Z,99799.60
2018-08-23T11:38:47.816Z,99787.28
2018-08-23T11:43:51.717Z,99783.05
2018-08-23T11:48:59.918Z,99777.86
2018-08-23T11:54:06.963Z,99773.60
2018-08-23T11:59:11.733Z,99766.34
2018-08-23T12:04:16.456Z,99762.83
2018-08-23T12:09:37.477Z,99760.64
2018-08-23T12:14:43.508Z,99747.97
2018-08-23T12:19:47.424Z,99743.25
2018-08-23T12:24:51.567Z,99730.25
2018-08-23T12:29:55.502Z,99729.60
2018-08-23T12:35:04.988Z,99729.94
2018-08-23T12:40:13.937Z,99719.98
2018-08-23T12:45:17.922Z,99711.02
2018-08-23T12:50:22.896Z,99702.55
2018-08-23T12:55:26.783Z,99697.65
2018-08-23T13:05:53.616Z,99689.55
2018-08-23T13:10:57.476Z,99691.59
2018-08-23T13:16:01.324Z,99693.15
2018-08-23T13:21:05.147Z,99686.08
2018-08-23T13:26:08.850Z,99679.66
2018-08-23T13:31:12.672Z,99676.10
2018-08-23T13:36:16.542Z,99663.43
2018-08-23T13:41:20.325Z,99659.88
2018-08-23T13:46:24.142Z,99664.63
2018-08-23T13:51:28.643Z,99658.37
2018-08-23T13:56:32.475Z,99666.37
2018-08-23T14:01:36.355Z,99644.05
2018-08-23T14:06:40.104Z,99634.72
2018-08-23T14:11:44.026Z,99633.06
2018-08-23T14:16:47.825Z,99641.70
2018-08-23T14:21:51.592Z,99639.16
2018-08-23T14:26:55.451Z,99640.13
2018-08-23T14:31:59.931Z,99642.16
2018-08-23T14:37:04.383Z,99638.11
2018-08-23T14:42:08.267Z,99640.30
2018-08-23T14:47:17.388Z,99698.77
2018-08-23T14:52:21.173Z,99730.72
2018-08-23T14:57:30.232Z,99752.02
2018-08-23T15:02:33.995Z,99757.28
2018-08-23T15:07:37.891Z,99783.95
2018-08-23T15:12:41.631Z,99809.84
2018-08-23T15:17:45.485Z,99827.08
2018-08-23T15:22:49.524Z,99840.09
2018-08-23T15:27:53.520Z,99873.56
2018-08-23T15:33:01.570Z,99896.75
2018-08-23T15:38:05.526Z,99923.12
2018-08-23T15:43:09.651Z,99961.70
2018-08-23T15:48:14.662Z,99944.03
2018-08-23T15:53:18.476Z,99937.95
2018-08-23T15:58:22.327Z,99925.91
2018-08-23T16:03:26.198Z,99902.28
2018-08-23T16:08:31.740Z,99896.38
2018-08-23T16:13:35.581Z,99873.22
2018-08-23T16:18:44.505Z,99861.59
2018-08-23T16:23:48.246Z,99843.17
2018-08-23T16:28:52.081Z,99826.09
2018-08-23T16:33:55.872Z,99805.83
2018-08-23T16:39:00.236Z,99781.33
2018-08-23T16:44:04.153Z,99767.98
2018-08-23T16:49:08.443Z,99753.61
2018-08-23T16:54:12.425Z,99737.20
2018-08-23T16:59:16.335Z,99728.91
2018-08-23T17:04:20.228Z,99722.99
2018-08-23T17:09:24.277Z,99720.82
2018-08-23T17:14:28.295Z,99721.30
2018-08-23T17:19:32.287Z,99722.80
2018-08-23T17:24:36.540Z,99712.79
2018-08-23T17:29:40.339Z,99716.90
2018-08-23T17:34:44.275Z,99715.38
2018-08-23T17:39:47.970Z,99715.88
2018-08-23T17:44:51.919Z,99705.00
2018-08-23T17:49:55.929Z,99692.51
2018-08-23T17:54:59.832Z,99697.74
2018-08-23T18:00:06.250Z,99695.67
2018-08-23T18:05:10.086Z,99687.89
2018-08-23T18:10:13.926Z,99704.70
2018-08-23T18:15:17.674Z,99713.09
2018-08-23T18:20:21.967Z,99710.81
2018-08-23T18:25:25.762Z,99718.59
2018-08-23T18:30:29.636Z,99719.44
2018-08-23T18:35:33.426Z,99713.55
2018-08-23T18:40:37.356Z,99719.27
2018-08-23T18:45:41.339Z,99726.54
2018-08-23T18:50:45.304Z,99721.63
2018-08-23T18:55:49.160Z,99714.02
2018-08-23T19:00:53.651Z,99716.38
2018-08-23T19:05:58.183Z,99721.30
2018-08-23T19:11:02.096Z,99710.42
2018-08-23T19:16:11.153Z,99716.67
2018-08-23T19:21:15.128Z,99712.30
2018-08-23T19:26:19.020Z,99713.34
2018-08-23T19:31:22.990Z,99706.92
2018-08-23T19:36:26.793Z,99710.93
2018-08-23T19:41:31.286Z,99703.15
2018-08-23T19:46:40.412Z,99706.60
2018-08-23T19:51:44.753Z,99711.45
2018-08-23T19:56:48.573Z,99714.48
2018-08-23T20:01:52.427Z,99709.39
2018-08-23T20:06:56.430Z,99706.48
2018-08-23T20:12:00.412Z,99708.44
2018-08-23T20:17:04.339Z,99706.42
2018-08-23T20:22:08.667Z,99701.30
2018-08-23T20:27:12.479Z,99697.63
2018-08-23T20:32:16.358Z,99695.94
2018-08-23T20:37:20.131Z,99685.95
2018-08-23T20:42:24.284Z,99690.20
2018-08-23T20:47:28.238Z,99695.45
2018-08-23T20:52:32.148Z,99690.71
2018-08-23T20:57:36.141Z,99686.47
2018-08-23T21:02:40.188Z,99683.78
2018-08-23T21:07:44.140Z,99689.51
2018-08-23T21:12:48.185Z,99690.16
2018-08-23T21:17:52.162Z,99684.91
2018-08-23T21:22:56.531Z,99680.55
2018-08-23T21:28:00.475Z,99676.52
2018-08-23T21:33:04.380Z,99678.38
2018-08-23T21:38:08.219Z,99679.00
2018-08-23T21:43:12.195Z,99680.89
2018-08-23T21:48:16.059Z,99685.56
2018-08-23T21:53:19.912Z,99684.55
2018-08-23T21:58:23.775Z,99681.17
2018-08-23T22:03:27.768Z,99686.07
2018-08-23T22:08:31.857Z,99676.62
2018-08-23T22:13:35.673Z,99680.66
2018-08-23T22:18:39.417Z,99678.63
2018-08-23T22:23:43.237Z,99672.05
2018-08-23T22:28:47.066Z,99662.93
2018-08-23T22:33:51.089Z,99647.88
2018-08-23T22:38:55.020Z,99642.80
2018-08-23T22:43:58.907Z,99633.87
2018-08-23T22:49:02.858Z,99619.83
2018-08-23T22:54:07.064Z,99622.39
2018-08-23T22:59:11.057Z,99622.88
2018-08-23T23:04:20.147Z,99628.11
2018-08-23T23:09:24.648Z,99625.58
2018-08-23T23:14:28.472Z,99624.06
2018-08-23T23:19:32.212Z,99614.92
2018-08-23T23:24:41.159Z,99617.31
2018-08-23T23:29:44.937Z,99624.39
2018-08-23T23:34:48.671Z,99623.05
2018-08-23T23:39:52.476Z,99617.28
2018-08-23T23:44:56.316Z,99604.64
2018-08-23T23:50:00.121Z,99607.66
2018-08-23T23:55:06.050Z,99597.87
